地図

経路データ

SID SEASON NUMBER BASIN SUBBASIN NAME ISO_TIME NATURE LAT LON WMO_WIND WMO_PRES WMO_AGENCY TRACK_TYPE DIST2LAND LANDFALL IFLAG USA_AGENCY USA_ATCF_ID USA_LAT USA_LON USA_RECORD USA_STATUS USA_WIND USA_PRES USA_SSHS USA_R34_NE USA_R34_SE USA_R34_SW USA_R34_NW USA_R50_NE USA_R50_SE USA_R50_SW USA_R50_NW USA_R64_NE USA_R64_SE USA_R64_SW USA_R64_NW USA_POCI USA_ROCI USA_RMW USA_EYE TOKYO_LAT TOKYO_LON TOKYO_GRADE TOKYO_WIND TOKYO_PRES TOKYO_R50_DIR TOKYO_R50_LONG TOKYO_R50_SHORT TOKYO_R30_DIR TOKYO_R30_LONG TOKYO_R30_SHORT TOKYO_LAND CMA_LAT CMA_LON CMA_CAT CMA_WIND CMA_PRES HKO_LAT HKO_LON HKO_CAT HKO_WIND HKO_PRES NEWDELHI_LAT NEWDELHI_LON NEWDELHI_GRADE NEWDELHI_WIND NEWDELHI_PRES NEWDELHI_CI NEWDELHI_DP NEWDELHI_POCI REUNION_LAT REUNION_LON REUNION_TYPE REUNION_WIND REUNION_PRES REUNION_TNUM REUNION_CI REUNION_RMW REUNION_R34_NE REUNION_R34_SE REUNION_R34_SW REUNION_R34_NW REUNION_R50_NE REUNION_R50_SE REUNION_R50_SW REUNION_R50_NW REUNION_R64_NE REUNION_R64_SE REUNION_R64_SW REUNION_R64_NW BOM_LAT BOM_LON BOM_TYPE BOM_WIND BOM_PRES BOM_TNUM BOM_CI BOM_RMW BOM_R34_NE BOM_R34_SE BOM_R34_SW BOM_R34_NW BOM_R50_NE BOM_R50_SE BOM_R50_SW BOM_R50_NW BOM_R64_NE BOM_R64_SE BOM_R64_SW BOM_R64_NW BOM_ROCI BOM_POCI BOM_EYE BOM_POS_METHOD BOM_PRES_METHOD NADI_LAT NADI_LON NADI_CAT NADI_WIND NADI_PRES WELLINGTON_LAT WELLINGTON_LON WELLINGTON_WIND WELLINGTON_PRES DS824_LAT DS824_LON DS824_STAGE DS824_WIND DS824_PRES TD9636_LAT TD9636_LON TD9636_STAGE TD9636_WIND TD9636_PRES TD9635_LAT TD9635_LON TD9635_WIND TD9635_PRES TD9635_ROCI NEUMANN_LAT NEUMANN_LON NEUMANN_CLASS NEUMANN_WIND NEUMANN_PRES MLC_LAT MLC_LON MLC_CLASS MLC_WIND MLC_PRES USA_GUST BOM_GUST BOM_GUST_PER REUNION_GUST REUNION_GUST_PER USA_SEAHGT USA_SEARAD_NE USA_SEARAD_SE USA_SEARAD_SW USA_SEARAD_NW STORM_SPEED STORM_DIR
1873042S14056 1873 6 SI MM NOT_NAMED 1873-02-11 06:00:00 NR -14.3000 56.4000 reunion main 642 607 _____O________ -1 -14.3000 56.4000 99 9.90000 7 233
1873042S14056 1873 6 SI MM NOT_NAMED 1873-02-11 09:00:00 NR -14.5198 56.1038 main 607 572 _____P________ -1 -14.5198 56.1038 99 7 233
1873042S14056 1873 6 SI MM NOT_NAMED 1873-02-11 12:00:00 NR -14.7375 55.8103 main 572 538 _____P________ -1 -14.7375 55.8103 99 7 233
1873042S14056 1873 6 SI MM NOT_NAMED 1873-02-11 15:00:00 NR -14.9512 55.5229 main 537 515 _____P________ -1 -14.9512 55.5229 99 7 232
1873042S14056 1873 6 SI MM NOT_NAMED 1873-02-11 18:00:00 NR -15.1593 55.2453 main 504 482 _____P________ -1 -15.1593 55.2453 99 7 232
1873042S14056 1873 6 SI MM NOT_NAMED 1873-02-11 21:00:00 NR -15.3600 54.9806 main 482 450 _____P________ -1 -15.3600 54.9806 99 6 232
1873042S14056 1873 6 SI MM NOT_NAMED 1873-02-12 00:00:00 NR -15.5514 54.7326 main 450 429 _____P________ -1 -15.5514 54.7326 99 6 231
1873042S14056 1873 6 SI MM NOT_NAMED 1873-02-12 03:00:00 NR -15.7320 54.5045 main 429 410 _____P________ -1 -15.7320 54.5045 99 5 230
1873042S14056 1873 6 SI MM NOT_NAMED 1873-02-12 06:00:00 NR -15.9000 54.3000 reunion main 410 391 _____O________ -1 -15.9000 54.3000 99 9.90000 5 229
1873042S14056 1873 6 SI MM NOT_NAMED 1873-02-12 09:00:00 NR -16.0546 54.1213 main 393 382 _____P________ -1 -16.0546 54.1213 99 4 227
1873042S14056 1873 6 SI MM NOT_NAMED 1873-02-12 12:00:00 NR -16.1980 53.9657 main 385 367 _____P________ -1 -16.1980 53.9657 99 4 225
1873042S14056 1873 6 SI MM NOT_NAMED 1873-02-12 15:00:00 NR -16.3335 53.8295 main 367 360 _____P________ -1 -16.3335 53.8295 99 4 223
1873042S14056 1873 6 SI MM NOT_NAMED 1873-02-12 18:00:00 NR -16.4641 53.7086 main 363 353 _____P________ -1 -16.4641 53.7086 99 3 220
1873042S14056 1873 6 SI MM NOT_NAMED 1873-02-12 21:00:00 NR -16.5930 53.5991 main 357 352 _____P________ -1 -16.5930 53.5991 99 3 218
1873042S14056 1873 6 SI MM NOT_NAMED 1873-02-13 00:00:00 NR -16.7232 53.4972 main 352 347 _____P________ -1 -16.7232 53.4972 99 3 216
1873042S14056 1873 6 SI MM NOT_NAMED 1873-02-13 03:00:00 NR -16.8578 53.3988 main 351 342 _____P________ -1 -16.8578 53.3988 99 3 214
1873042S14056 1873 6 SI MM NOT_NAMED 1873-02-13 06:00:00 NR -17.0000 53.3000 reunion main 346 341 _____O________ -1 -17.0000 53.3000 99 9.90000 4 215
1873042S14056 1873 6 SI MM NOT_NAMED 1873-02-13 09:00:00 NR -17.1649 53.1734 main 346 337 _____P________ -1 -17.1649 53.1734 99 4 215
1873042S14056 1873 6 SI MM NOT_NAMED 1873-02-13 12:00:00 NR -17.3366 53.0477 main 331 331 _____P________ -1 -17.3366 53.0477 99 4 214
1873042S14056 1873 6 SI MM NOT_NAMED 1873-02-13 15:00:00 NR -17.5131 52.9245 main 332 329 _____P________ -1 -17.5131 52.9245 99 4 213
1873042S14056 1873 6 SI MM NOT_NAMED 1873-02-13 18:00:00 NR -17.6926 52.8053 main 334 327 _____P________ -1 -17.6926 52.8053 99 4 212
1873042S14056 1873 6 SI MM NOT_NAMED 1873-02-13 21:00:00 NR -17.8729 52.6917 main 331 321 _____P________ -1 -17.8729 52.6917 99 4 210
1873042S14056 1873 6 SI MM NOT_NAMED 1873-02-14 00:00:00 NR -18.0522 52.5852 main 330 320 _____P________ -1 -18.0522 52.5852 99 4 209
1873042S14056 1873 6 SI MM NOT_NAMED 1873-02-14 03:00:00 NR -18.2286 52.4875 main 322 313 _____P________ -1 -18.2286 52.4875 99 4 207
1873042S14056 1873 6 SI MM NOT_NAMED 1873-02-14 06:00:00 NR -18.4000 52.4000 reunion main 316 307 _____O________ -1 -18.4000 52.4000 99 9.90000 3 207
1873042S14056 1873 6 SI MM NOT_NAMED 1873-02-14 09:00:00 NR -18.5305 52.3207 main 307 307 _____P________ -1 -18.5305 52.3207 99 3 209
1873042S14056 1873 6 SI MM NOT_NAMED 1873-02-14 12:00:00 NR -18.6534 52.2514 main 310 300 _____P________ -1 -18.6534 52.2514 99 3 207
1873042S14056 1873 6 SI MM NOT_NAMED 1873-02-14 15:00:00 NR -18.7751 52.1912 main 302 295 _____P________ -1 -18.7751 52.1912 99 3 203
1873042S14056 1873 6 SI MM NOT_NAMED 1873-02-14 18:00:00 NR -18.9024 52.1395 main 295 295 _____P________ -1 -18.9024 52.1395 99 3 197
1873042S14056 1873 6 SI MM NOT_NAMED 1873-02-14 21:00:00 NR -19.0420 52.0952 main 298 298 _____P________ -1 -19.0420 52.0952 99 3 195
1873042S14056 1873 6 SI MM NOT_NAMED 1873-02-15 00:00:00 NR -19.2003 52.0578 main 305 295 _____P________ -1 -19.2003 52.0578 99 4 192
1873042S14056 1873 6 SI MM NOT_NAMED 1873-02-15 03:00:00 NR -19.3841 52.0263 main 304 304 _____P________ -1 -19.3841 52.0263 99 4 188
1873042S14056 1873 6 SI MM NOT_NAMED 1873-02-15 06:00:00 NR -19.6000 52.0000 reunion main 310 306 _____O________ -1 -19.6000 52.0000 99 9.90000 5 190
1873042S14056 1873 6 SI MM NOT_NAMED 1873-02-15 09:00:00 NR -19.8487 51.9460 main 306 306 _____P________ -1 -19.8487 51.9460 99 5 190
1873042S14056 1873 6 SI MM NOT_NAMED 1873-02-15 12:00:00 NR -20.1266 51.8948 main 318 318 _____P________ -1 -20.1266 51.8948 99 6 188
1873042S14056 1873 6 SI MM NOT_NAMED 1873-02-15 15:00:00 NR -20.4318 51.8510 main 326 316 _____P________ -1 -20.4318 51.8510 99 6 186
1873042S14056 1873 6 SI MM NOT_NAMED 1873-02-15 18:00:00 NR -20.7625 51.8189 main 325 325 _____P________ -1 -20.7625 51.8189 99 7 182
1873042S14056 1873 6 SI MM NOT_NAMED 1873-02-15 21:00:00 NR -21.1165 51.8032 main 335 335 _____P________ -1 -21.1165 51.8032 99 7 0
1873042S14056 1873 6 SI MM NOT_NAMED 1873-02-16 00:00:00 NR -21.4921 51.8083 main 353 353 _____P________ -1 -21.4921 51.8083 99 8 178
1873042S14056 1873 6 SI MM NOT_NAMED 1873-02-16 03:00:00 NR -21.8872 51.8390 main 362 355 _____P________ -1 -21.8872 51.8390 99 8 174
1873042S14056 1873 6 SI MM NOT_NAMED 1873-02-16 06:00:00 NR -22.3000 51.9000 reunion main 366 366 _____O________ -1 -22.3000 51.9000 99 9.90000 9 170
1873042S14056 1873 6 SI MM NOT_NAMED 1873-02-16 09:00:00 NR -22.7679 52.0121 main 379 374 _____P________ -1 -22.7679 52.0121 99 10 166
1873042S14056 1873 6 SI MM NOT_NAMED 1873-02-16 12:00:00 NR -23.2633 52.1573 main 389 389 _____P________ -1 -23.2633 52.1573 99 11 164
1873042S14056 1873 6 SI MM NOT_NAMED 1873-02-16 15:00:00 NR -23.7716 52.3283 main 415 415 _____P________ -1 -23.7716 52.3283 99 11 162
1873042S14056 1873 6 SI MM NOT_NAMED 1873-02-16 18:00:00 NR -24.2785 52.5176 main 441 441 _____P________ -1 -24.2785 52.5176 99 11 160
1873042S14056 1873 6 SI MM NOT_NAMED 1873-02-16 21:00:00 NR -24.7692 52.7174 main 473 467 _____P________ -1 -24.7692 52.7174 99 10 159
1873042S14056 1873 6 SI MM NOT_NAMED 1873-02-17 00:00:00 NR -25.2293 52.9199 main 500 500 _____P________ -1 -25.2293 52.9199 99 10 158
1873042S14056 1873 6 SI MM NOT_NAMED 1873-02-17 03:00:00 NR -25.6444 53.1168 main 530 530 _____P________ -1 -25.6444 53.1168 99 8 156
1873042S14056 1873 6 SI MM NOT_NAMED 1873-02-17 06:00:00 NR -26.0000 53.3000 reunion main 563 563 _____O________ -1 -26.0000 53.3000 99 9.90000 7 154
1873042S14056 1873 6 SI MM NOT_NAMED 1873-02-17 09:00:00 NR -26.2859 53.4627 main 587 587 _____P________ -1 -26.2859 53.4627 99 6 152
1873042S14056 1873 6 SI MM NOT_NAMED 1873-02-17 12:00:00 NR -26.5073 53.6056 main 605 605 _____P________ -1 -26.5073 53.6056 99 5 148
1873042S14056 1873 6 SI MM NOT_NAMED 1873-02-17 15:00:00 NR -26.6736 53.7313 main 622 619 _____P________ -1 -26.6736 53.7313 99 4 144
1873042S14056 1873 6 SI MM NOT_NAMED 1873-02-17 18:00:00 NR -26.7939 53.8425 main 630 627 _____P________ -1 -26.7939 53.8425 99 3 137
1873042S14056 1873 6 SI MM NOT_NAMED 1873-02-17 21:00:00 NR -26.8776 53.9422 main 638 635 _____P________ -1 -26.8776 53.9422 99 2 130
1873042S14056 1873 6 SI MM NOT_NAMED 1873-02-18 00:00:00 NR -26.9337 54.0330 main 635 633 _____P________ -1 -26.9337 54.0330 99 2 120
1873042S14056 1873 6 SI MM NOT_NAMED 1873-02-18 03:00:00 NR -26.9714 54.1180 main 643 641 _____P________ -1 -26.9714 54.1180 99 2 114
1873042S14056 1873 6 SI MM NOT_NAMED 1873-02-18 06:00:00 NR -27.0000 54.2000 reunion main 641 _____O________ -1 -27.0000 54.2000 99 9.90000 2 111

IBTrACS Databaseについて

本データベースは、米国NOAAが公開する1842年以降の世界の熱帯低気圧のベストトラックデータアーカイブInternational Best Track Archive for Climate Stewardship (IBTrACS)を、ウェブで閲覧しやすい形式に変換したものです。

最終更新日:2021-12-03